Time;durP1;ratioP1;P1;durP2;ratioP2;P2;SDS_P1;SDS_P2;PMS_P1;PMS_P2;Temp;Humidity;BMP_temperature;BMP_pressure;BME280_temperature;BME280_humidity;BME280_pressure;Samples;Min_cycle;Max_cycle;Signal;HPM_P1;HPM_P2
2022/05/16 00:00:37;;;;;;;12.98;5.85;;;13.30;99.90;;;;;;5073721;28;20361;-75
2022/05/16 00:03:05;;;;;;;12.68;5.32;;;13.30;99.90;;;;;;5056164;28;20044;-74
2022/05/16 00:05:31;;;;;;;12.93;5.45;;;13.30;99.90;;;;;;5055904;28;20091;-75
2022/05/16 00:07:57;;;;;;;10.82;5.13;;;13.20;99.90;;;;;;5073649;28;20481;-75
2022/05/16 00:10:24;;;;;;;14.55;5.93;;;13.20;99.90;;;;;;5056314;28;20465;-76
2022/05/16 00:12:51;;;;;;;11.82;5.50;;;13.20;99.90;;;;;;5055804;28;20036;-75
2022/05/16 00:15:19;;;;;;;11.43;5.43;;;13.30;99.90;;;;;;5070334;28;20095;-75
2022/05/16 00:17:45;;;;;;;10.63;5.43;;;13.20;99.90;;;;;;5073701;28;20319;-75
2022/05/16 00:20:11;;;;;;;11.18;5.28;;;13.20;99.90;;;;;;5073103;28;20043;-75
2022/05/16 00:22:37;;;;;;;12.15;5.40;;;13.20;99.90;;;;;;5055563;28;20049;-76
2022/05/16 00:25:06;;;;;;;9.38;4.50;;;13.20;99.90;;;;;;5055950;28;20056;-75
2022/05/16 00:27:34;;;;;;;9.02;4.57;;;13.20;99.90;;;;;;5072872;28;20123;-74
2022/05/16 00:30:04;;;;;;;15.25;6.03;;;13.20;99.90;;;;;;5070242;28;20480;-74
2022/05/16 00:32:30;;;;;;;;;;;13.20;99.90;;;;;;5073332;28;20047;-75
2022/05/16 00:34:56;;;;;;;12.70;5.45;;;13.20;99.90;;;;;;5069591;28;19916;-74
2022/05/16 00:37:22;;;;;;;11.27;5.20;;;13.20;99.90;;;;;;5055698;28;20062;-75
2022/05/16 00:39:47;;;;;;;9.60;5.05;;;13.30;99.90;;;;;;5072853;28;20111;-75
2022/05/16 00:42:14;;;;;;;12.32;5.47;;;13.20;99.90;;;;;;5055475;28;20041;-75
2022/05/16 00:44:40;;;;;;;10.43;4.93;;;13.30;99.90;;;;;;5072771;28;20040;-76
2022/05/16 00:47:06;;;;;;;13.48;5.57;;;13.20;99.90;;;;;;5055262;28;20044;-75
2022/05/16 00:49:37;;;;;;;9.75;4.90;;;13.20;99.90;;;;;;5055450;28;20068;-74
2022/05/16 00:52:21;;;;;;;13.25;5.97;;;13.20;99.90;;;;;;5072653;28;20048;-75
2022/05/16 00:54:56;;;;;;;11.70;5.57;;;13.20;99.90;;;;;;5072615;28;20453;-75
2022/05/16 00:57:34;;;;;;;10.85;5.22;;;13.20;99.90;;;;;;5052535;28;20044;-75
2022/05/16 01:00:08;;;;;;;10.90;5.10;;;13.20;99.90;;;;;;5052738;28;20040;-74
2022/05/16 01:05:22;;;;;;;10.50;4.97;;;13.20;99.90;;;;;;5035214;28;20076;-76
2022/05/16 01:07:48;;;;;;;15.93;4.88;;;13.20;99.90;;;;;;5052322;28;20088;-75
2022/05/16 01:10:21;;;;;;;12.40;4.78;;;13.20;99.90;;;;;;5052227;28;20193;-73
2022/05/16 01:12:50;;;;;;;11.23;5.93;;;13.20;99.90;;;;;;5052377;28;20045;-74
2022/05/16 01:15:38;;;;;;;9.52;5.03;;;13.10;99.90;;;;;;5034973;28;20045;-75
2022/05/16 01:18:06;;;;;;;8.65;5.13;;;13.10;99.90;;;;;;5052044;28;20107;-74
2022/05/16 01:20:51;;;;;;;11.98;5.38;;;13.10;99.90;;;;;;5051407;28;20040;-74
2022/05/16 01:23:20;;;;;;;10.70;5.60;;;13.00;99.90;;;;;;5051962;28;20053;-74
2022/05/16 01:25:49;;;;;;;16.67;5.88;;;13.00;99.90;;;;;;5051319;28;20059;-76
2022/05/16 01:28:19;;;;;;;12.10;5.93;;;13.00;99.90;;;;;;5052037;28;20043;-74
2022/05/16 01:30:49;;;;;;;12.23;5.50;;;12.90;99.90;;;;;;5034765;28;20044;-74
2022/05/16 01:33:20;;;;;;;10.55;5.53;;;12.90;99.90;;;;;;5034152;28;20351;-76
2022/05/16 01:35:47;;;;;;;10.20;4.90;;;12.80;99.90;;;;;;5034631;28;20033;-75
2022/05/16 01:38:25;;;;;;;13.60;6.40;;;12.80;99.90;;;;;;5034615;28;20045;-75
2022/05/16 01:40:51;;;;;;;12.00;5.55;;;12.80;99.90;;;;;;5034596;28;20045;-74
2022/05/16 01:43:19;;;;;;;13.95;5.78;;;12.70;99.90;;;;;;5051088;28;20049;-75
2022/05/16 01:45:45;;;;;;;13.68;5.65;;;12.70;99.90;;;;;;5051645;28;20508;-75
2022/05/16 01:48:13;;;;;;;12.30;6.22;;;12.70;99.90;;;;;;5034025;28;20050;-74
2022/05/16 01:50:40;;;;;;;13.25;6.38;;;12.70;99.90;;;;;;5034762;28;20452;-75
2022/05/16 01:53:06;;;;;;;11.02;5.53;;;12.70;99.90;;;;;;5051485;28;20060;-74
2022/05/16 01:55:32;;;;;;;10.27;5.22;;;12.70;99.90;;;;;;5056975;28;20052;-74
2022/05/16 01:57:58;;;;;;;8.77;5.38;;;12.70;99.90;;;;;;5071835;28;20040;-76
2022/05/16 02:00:24;;;;;;;9.98;5.80;;;12.60;99.90;;;;;;5054260;28;20052;-74
2022/05/16 02:02:50;;;;;;;9.25;5.65;;;12.60;99.90;;;;;;5054417;28;20126;-75
2022/05/16 02:05:19;;;;;;;13.55;6.00;;;12.60;99.90;;;;;;5071720;28;20037;-75
2022/05/16 02:07:45;;;;;;;10.13;5.53;;;12.50;99.90;;;;;;5071814;28;20049;-76
2022/05/16 02:10:15;;;;;;;11.93;5.80;;;12.50;99.90;;;;;;5071658;28;20047;-74
2022/05/16 02:12:42;;;;;;;11.88;5.47;;;12.40;99.90;;;;;;5071490;28;20310;-74
2022/05/16 02:15:10;;;;;;;8.00;4.63;;;12.40;99.90;;;;;;5071575;28;20548;-74
2022/05/16 02:17:37;;;;;;;10.38;5.65;;;12.40;99.90;;;;;;5071641;28;20053;-75
2022/05/16 02:20:03;;;;;;;12.40;5.50;;;12.30;99.90;;;;;;5071558;28;20056;-76
2022/05/16 02:25:13;;;;;;;12.00;5.28;;;12.40;99.90;;;;;;5071325;28;20052;-75
2022/05/16 02:27:39;;;;;;;11.48;5.78;;;12.30;99.90;;;;;;5071677;28;20050;-75
2022/05/16 02:30:06;;;;;;;11.93;5.25;;;12.30;99.90;;;;;;5071403;28;20059;-76
2022/05/16 02:32:32;;;;;;;10.80;5.18;;;12.20;99.90;;;;;;5071472;28;20044;-74
2022/05/16 02:34:58;;;;;;;10.95;5.32;;;12.20;99.90;;;;;;5071169;28;20123;-76
2022/05/16 02:37:24;;;;;;;10.25;5.10;;;12.20;99.90;;;;;;5071425;28;20048;-74
2022/05/16 02:39:50;;;;;;;10.57;5.10;;;12.20;99.90;;;;;;5053766;28;20094;-76
2022/05/16 02:42:16;;;;;;;13.15;5.78;;;12.20;99.90;;;;;;5071571;28;20045;-74
2022/05/16 02:44:43;;;;;;;11.23;5.45;;;12.20;99.90;;;;;;5071304;28;20055;-75
2022/05/16 02:47:12;;;;;;;11.40;5.75;;;12.20;99.90;;;;;;5071409;28;20055;-75
2022/05/16 02:49:38;;;;;;;13.23;5.60;;;12.20;99.90;;;;;;5071353;28;20083;-75
2022/05/16 02:52:04;;;;;;;11.20;5.35;;;12.10;99.90;;;;;;5053590;28;20353;-76
2022/05/16 02:54:30;;;;;;;11.13;5.63;;;12.20;99.90;;;;;;5071148;28;20040;-74
2022/05/16 02:56:57;;;;;;;12.68;5.32;;;12.20;99.90;;;;;;5071086;28;20041;-74
2022/05/16 02:59:26;;;;;;;9.43;5.38;;;12.20;99.90;;;;;;5072163;28;20048;-74
2022/05/16 03:01:51;;;;;;;12.95;5.68;;;12.10;99.90;;;;;;5074955;28;20048;-76
2022/05/16 03:04:17;;;;;;;11.32;5.07;;;12.10;99.90;;;;;;5057243;28;20692;-75
2022/05/16 03:06:43;;;;;;;10.50;6.07;;;12.10;99.90;;;;;;5074484;28;20053;-74
2022/05/16 03:09:09;;;;;;;9.95;5.10;;;12.00;99.90;;;;;;5074416;28;20056;-77
2022/05/16 03:11:35;;;;;;;9.38;4.85;;;12.00;99.90;;;;;;5057245;28;20044;-75
2022/05/16 03:14:01;;;;;;;10.88;5.63;;;12.00;99.90;;;;;;5057229;28;20155;-75
2022/05/16 03:16:27;;;;;;;10.45;5.00;;;11.90;99.90;;;;;;5074506;28;20040;-74
2022/05/16 03:18:53;;;;;;;10.35;5.15;;;11.90;99.90;;;;;;5057077;28;20131;-74
2022/05/16 03:21:20;;;;;;;12.48;5.60;;;11.80;99.90;;;;;;5056861;28;20091;-74
2022/05/16 03:23:45;;;;;;;8.73;5.40;;;11.80;99.90;;;;;;5056618;28;20053;-75
2022/05/16 03:26:12;;;;;;;11.73;4.82;;;11.80;99.90;;;;;;5056882;28;20055;-74
2022/05/16 03:28:38;;;;;;;10.43;4.57;;;11.80;99.90;;;;;;5074295;28;20048;-74
2022/05/16 03:31:04;;;;;;;9.30;4.50;;;11.80;99.90;;;;;;5074174;28;20044;-75
2022/05/16 03:33:30;;;;;;;10.73;4.72;;;11.80;99.90;;;;;;5074248;28;20119;-74
2022/05/16 03:35:56;;;;;;;11.95;4.70;;;11.80;99.90;;;;;;5074014;28;20087;-74
2022/05/16 03:41:09;;;;;;;10.52;4.75;;;11.80;99.90;;;;;;5074040;28;20051;-74
2022/05/16 03:43:37;;;;;;;9.30;4.97;;;11.80;99.90;;;;;;5056705;28;20040;-76
2022/05/16 03:46:03;;;;;;;8.85;4.55;;;11.80;99.90;;;;;;5074228;28;20036;-74
2022/05/16 03:48:29;;;;;;;11.88;5.00;;;11.80;99.90;;;;;;5056543;28;20052;-74
2022/05/16 03:50:54;;;;;;;9.43;5.25;;;11.80;99.90;;;;;;5073541;28;20049;-75
2022/05/16 03:53:20;;;;;;;10.30;4.35;;;11.90;99.90;;;;;;5056254;28;20040;-74
2022/05/16 03:55:46;;;;;;;10.55;4.68;;;11.90;99.90;;;;;;5056381;28;20042;-75
2022/05/16 03:58:12;;;;;;;9.07;4.47;;;11.80;99.90;;;;;;5073839;28;20043;-74
2022/05/16 04:00:38;;;;;;;10.05;4.63;;;11.80;99.90;;;;;;5056205;28;20430;-75
2022/05/16 04:03:04;;;;;;;10.48;5.00;;;11.90;99.90;;;;;;5056170;28;20044;-75
2022/05/16 04:05:30;;;;;;;13.73;5.28;;;11.90;99.90;;;;;;5073180;28;20365;-75
2022/05/16 04:07:56;;;;;;;10.88;4.22;;;11.90;99.90;;;;;;5073661;28;20044;-75
2022/05/16 04:10:23;;;;;;;7.45;4.43;;;11.90;99.90;;;;;;5073122;28;20044;-75
2022/05/16 04:12:49;;;;;;;11.75;4.85;;;11.90;99.90;;;;;;5056085;28;20084;-75
2022/05/16 04:15:14;;;;;;;13.35;5.40;;;11.90;99.90;;;;;;5073275;28;20099;-75
2022/05/16 04:17:41;;;;;;;9.68;4.57;;;11.90;99.90;;;;;;5055954;28;20114;-75
2022/05/16 04:20:09;;;;;;;10.43;4.40;;;12.00;99.90;;;;;;5072989;28;20102;-75
2022/05/16 04:22:35;;;;;;;9.40;4.32;;;12.00;99.90;;;;;;5055812;28;20079;-74
2022/05/16 04:25:01;;;;;;;9.85;4.13;;;12.10;99.90;;;;;;5055932;28;20086;-75
2022/05/16 04:27:27;;;;;;;8.80;4.15;;;12.10;99.90;;;;;;5073185;28;20456;-73
2022/05/16 04:29:53;;;;;;;10.10;4.28;;;12.10;99.90;;;;;;5055616;28;20050;-75
2022/05/16 04:32:19;;;;;;;13.40;4.75;;;12.20;99.90;;;;;;5055424;28;20115;-76
2022/05/16 04:34:44;;;;;;;12.70;4.07;;;12.20;99.90;;;;;;5072774;28;20120;-76
2022/05/16 04:37:10;;;;;;;9.27;3.85;;;12.30;99.90;;;;;;5073032;28;20087;-74
2022/05/16 04:39:36;;;;;;;11.07;4.68;;;12.30;99.90;;;;;;5073036;28;20339;-75
2022/05/16 04:44:46;;;;;;;11.98;5.53;;;12.40;99.90;;;;;;5072487;28;20385;-76
2022/05/16 04:47:12;;;;;;;8.65;3.80;;;12.50;99.90;;;;;;5055195;28;20047;-75
2022/05/16 04:49:38;;;;;;;8.98;4.45;;;12.50;99.90;;;;;;5072836;28;20307;-74
2022/05/16 04:52:04;;;;;;;10.88;4.60;;;12.60;99.90;;;;;;5072706;28;20058;-75
2022/05/16 04:54:30;;;;;;;8.65;4.03;;;12.60;99.90;;;;;;5055344;28;20048;-75
2022/05/16 04:56:56;;;;;;;10.27;4.50;;;12.60;99.90;;;;;;5072376;28;20040;-75
2022/05/16 04:59:22;;;;;;;9.95;4.40;;;12.60;99.90;;;;;;5072371;28;20095;-76
2022/05/16 05:01:48;;;;;;;12.20;4.53;;;12.70;99.90;;;;;;5072269;28;20045;-77
2022/05/16 05:04:15;;;;;;;10.13;4.40;;;12.70;99.90;;;;;;5055299;28;20080;-75
2022/05/16 05:06:41;;;;;;;14.77;4.20;;;12.80;99.90;;;;;;5055045;28;20048;-76
2022/05/16 05:09:08;;;;;;;11.13;4.57;;;12.80;99.90;;;;;;5055208;28;20032;-75
2022/05/16 05:14:33;;;;;;;9.88;4.38;;;12.80;99.90;;;;;;5072158;28;20401;-75
2022/05/16 05:17:00;;;;;;;8.95;4.47;;;12.80;99.90;;;;;;5072580;28;20420;-75
2022/05/16 05:19:26;;;;;;;7.20;4.35;;;12.90;99.90;;;;;;5072148;28;20114;-74
2022/05/16 05:21:52;;;;;;;11.30;3.83;;;13.00;99.90;;;;;;5071431;28;20041;-74
2022/05/16 05:24:17;;;;;;;8.38;3.80;;;13.10;99.90;;;;;;5054260;28;20063;-75
2022/05/16 05:26:43;;;;;;;9.95;4.10;;;13.30;99.90;;;;;;5054554;28;20056;-74
2022/05/16 05:29:11;;;;;;;9.10;3.63;;;13.40;99.90;;;;;;5054867;28;20071;-76
2022/05/16 05:31:37;;;;;;;10.60;3.78;;;13.60;99.90;;;;;;5072101;28;20097;-74
2022/05/16 05:34:04;;;;;;;9.75;3.85;;;13.70;99.90;;;;;;5072218;28;20412;-75
2022/05/16 05:36:31;;;;;;;7.82;4.03;;;13.90;99.90;;;;;;5072315;28;20040;-76
2022/05/16 05:38:58;;;;;;;8.82;3.90;;;14.00;99.90;;;;;;5072012;28;20041;-75
2022/05/16 05:41:24;;;;;;;9.93;3.55;;;14.20;99.90;;;;;;5071793;28;20452;-74
2022/05/16 05:43:50;;;;;;;6.85;3.40;;;14.30;99.90;;;;;;5072348;28;20116;-75
2022/05/16 05:46:17;;;;;;;11.18;3.70;;;14.50;99.90;;;;;;5072181;28;20044;-75
2022/05/16 05:48:43;;;;;;;11.55;4.20;;;14.60;99.90;;;;;;5054546;28;20059;-76
2022/05/16 05:51:09;;;;;;;8.68;3.28;;;14.70;99.90;;;;;;5071826;28;20032;-74
2022/05/16 05:53:37;;;;;;;13.50;4.60;;;14.90;99.90;;;;;;5072322;28;20044;-75
2022/05/16 05:56:05;;;;;;;9.27;4.20;;;15.00;99.90;;;;;;5071570;28;20037;-75
2022/05/16 05:58:32;;;;;;;9.45;3.35;;;15.20;99.90;;;;;;5072048;28;20044;-75
2022/05/16 06:00:58;;;;;;;6.63;3.33;;;15.30;99.90;;;;;;5071812;28;20047;-76
2022/05/16 06:03:25;;;;;;;11.50;3.97;;;15.40;99.90;;;;;;5071926;28;20056;-76
2022/05/16 06:05:50;;;;;;;12.13;4.32;;;15.60;99.90;;;;;;5054378;28;20449;-75
2022/05/16 06:08:16;;;;;;;7.78;3.47;;;15.80;99.90;;;;;;5071726;28;20051;-76
2022/05/16 06:10:42;;;;;;;9.70;4.18;;;15.90;99.90;;;;;;5071531;28;20051;-74
2022/05/16 06:13:08;;;;;;;7.72;3.28;;;16.10;99.90;;;;;;5071645;28;20058;-75
2022/05/16 06:15:34;;;;;;;10.68;3.85;;;16.20;99.90;;;;;;5071770;28;20040;-75
2022/05/16 06:18:00;;;;;;;9.35;4.35;;;16.40;99.90;;;;;;5071715;28;20040;-76
2022/05/16 06:20:26;;;;;;;6.95;3.45;;;16.50;99.90;;;;;;5071724;28;20045;-76
2022/05/16 06:22:51;;;;;;;9.88;3.25;;;16.70;99.90;;;;;;5053921;28;20354;-75
2022/05/16 06:25:31;;;;;;;10.27;3.70;;;16.90;99.90;;;;;;5054008;28;20516;-76
2022/05/16 06:28:15;;;;;;;8.40;3.20;;;17.20;99.90;;;;;;5071659;28;20101;-76
2022/05/16 06:30:45;;;;;;;7.50;2.95;;;17.60;99.90;;;;;;5075162;28;20048;-76
2022/05/16 06:33:13;;;;;;;10.50;3.80;;;17.90;99.90;;;;;;5072068;28;20445;-77
2022/05/16 06:35:39;;;;;;;14.43;3.80;;;18.10;99.90;;;;;;5075141;28;20039;-76
2022/05/16 06:38:08;;;;;;;10.65;3.55;;;18.30;99.90;;;;;;5075283;28;20511;-77
2022/05/16 06:40:35;;;;;;;7.32;2.85;;;18.50;99.90;;;;;;5075100;28;20534;-76
2022/05/16 06:43:01;;;;;;;8.50;2.92;;;18.80;99.90;;;;;;5057867;28;20101;-76
2022/05/16 06:45:27;;;;;;;8.35;3.10;;;19.00;99.90;;;;;;5076112;28;20148;-76
2022/05/16 06:47:53;;;;;;;6.22;3.20;;;19.10;99.90;;;;;;5075500;28;20521;-76
2022/05/16 06:50:19;;;;;;;10.65;3.20;;;19.20;99.90;;;;;;5058281;28;20046;-76
2022/05/16 06:52:44;;;;;;;9.68;3.65;;;19.40;99.90;;;;;;5077564;28;20117;-77
2022/05/16 06:55:11;;;;;;;7.70;3.10;;;19.60;99.90;;;;;;5060056;28;20047;-75
2022/05/16 06:57:37;;;;;;;10.63;3.13;;;19.80;99.90;;;;;;5076841;28;20052;-76
2022/05/16 07:00:06;;;;;;;10.18;2.92;;;19.90;99.90;;;;;;5076791;28;20451;-76
2022/05/16 07:02:32;;;;;;;9.85;3.13;;;20.10;99.90;;;;;;5077179;28;20045;-76
2022/05/16 07:04:58;;;;;;;8.40;3.33;;;20.40;99.90;;;;;;5059343;28;20510;-76
2022/05/16 07:07:24;;;;;;;9.23;4.07;;;20.60;99.90;;;;;;5043152;28;20062;-75
2022/05/16 07:09:50;;;;;;;8.40;2.90;;;20.80;99.90;;;;;;5076205;28;20084;-78
2022/05/16 07:12:16;;;;;;;10.63;3.30;;;20.90;99.90;;;;;;5076254;28;20083;-78
2022/05/16 07:14:42;;;;;;;10.02;3.70;;;21.10;99.90;;;;;;5075538;28;20044;-75
2022/05/16 07:17:08;;;;;;;12.25;3.15;;;21.10;99.90;;;;;;5057961;28;20082;-78
2022/05/16 07:19:35;;;;;;;6.55;3.13;;;21.10;99.90;;;;;;5055406;28;20044;-80
2022/05/16 07:22:14;;;;;;;9.32;3.35;;;21.10;99.90;;;;;;5076205;28;20040;-77
2022/05/16 07:24:42;;;;;;;11.07;3.03;;;21.20;99.90;;;;;;5075069;28;20044;-75
2022/05/16 07:29:52;;;;;;;7.10;3.20;;;21.70;99.90;;;;;;5056934;28;20048;-75
2022/05/16 07:32:18;;;;;;;13.23;3.40;;;21.80;99.90;;;;;;5074126;28;20542;-74
2022/05/16 07:34:44;;;;;;;10.57;3.20;;;21.80;99.20;;;;;;5074930;28;20161;-77
2022/05/16 07:37:10;;;;;;;8.85;3.08;;;21.90;99.20;;;;;;5074908;28;20087;-77
2022/05/16 07:39:36;;;;;;;8.88;3.45;;;22.00;98.40;;;;;;5074494;28;20110;-78
2022/05/16 07:42:06;;;;;;;8.23;3.40;;;22.00;98.10;;;;;;5074511;28;20433;-77
2022/05/16 07:44:33;;;;;;;9.60;3.50;;;22.10;96.60;;;;;;5073998;28;20033;-78
2022/05/16 07:46:59;;;;;;;6.93;2.92;;;22.20;96.30;;;;;;5056586;28;20048;-78
2022/05/16 07:49:25;;;;;;;8.18;3.30;;;22.20;95.90;;;;;;5056929;28;20808;-77
2022/05/16 07:51:52;;;;;;;10.38;3.33;;;22.30;95.50;;;;;;5074287;28;20097;-78
2022/05/16 07:54:18;;;;;;;8.48;3.10;;;22.40;95.60;;;;;;5074255;28;20043;-77
2022/05/16 07:56:44;;;;;;;7.72;3.15;;;22.70;96.40;;;;;;5074290;28;20048;-77
2022/05/16 07:59:10;;;;;;;6.00;3.08;;;22.90;96.30;;;;;;5074101;28;20453;-78
2022/05/16 08:01:37;;;;;;;6.95;3.20;;;23.30;95.80;;;;;;5056362;28;20059;-77
2022/05/16 08:04:05;;;;;;;8.80;3.22;;;23.60;95.80;;;;;;5074005;28;20044;-78
2022/05/16 08:06:31;;;;;;;8.00;3.20;;;23.80;94.90;;;;;;5056567;28;20059;-78
2022/05/16 08:11:41;;;;;;;7.60;2.78;;;23.90;92.60;;;;;;5056393;28;20109;-80
2022/05/16 08:14:07;;;;;;;8.02;3.20;;;23.60;92.20;;;;;;5095186;28;20075;-79
2022/05/16 08:16:33;;;;;;;10.55;3.15;;;23.50;91.50;;;;;;5078905;28;20044;-79
2022/05/16 08:19:00;;;;;;;7.57;2.80;;;23.40;91.00;;;;;;5096622;28;20048;-78
2022/05/16 08:21:26;;;;;;;10.18;3.50;;;23.40;93.10;;;;;;5087881;28;20099;-78
2022/05/16 08:23:52;;;;;;;9.82;2.78;;;23.70;91.00;;;;;;5057659;28;20128;-78
2022/05/16 08:26:17;;;;;;;12.02;3.47;;;23.80;90.60;;;;;;5075534;28;20086;-79
2022/05/16 08:28:43;;;;;;;6.15;2.80;;;23.80;88.50;;;;;;5076519;28;20044;-79
2022/05/16 08:31:10;;;;;;;6.97;2.58;;;23.70;88.80;;;;;;5058085;28;20119;-78
2022/05/16 08:33:38;;;;;;;9.25;3.20;;;23.60;88.60;;;;;;5075863;28;20047;-77
2022/05/16 08:41:54;;;;;;;7.75;2.67;;;23.30;87.80;;;;;;5058109;28;20118;-78
2022/05/16 08:44:27;;;;;;;10.88;3.10;;;23.20;90.20;;;;;;5075958;28;20036;-79
2022/05/16 08:47:19;;;;;;;10.15;3.42;;;23.20;90.30;;;;;;5058236;28;20053;-79
2022/05/16 08:49:51;;;;;;;10.70;3.33;;;23.20;89.90;;;;;;5075426;28;20345;-77
2022/05/16 08:52:19;;;;;;;9.00;3.40;;;23.20;89.20;;;;;;5075463;28;20438;-78
2022/05/16 08:55:11;;;;;;;6.75;2.50;;;23.20;88.50;;;;;;5058072;28;20071;-78
2022/05/16 08:57:46;;;;;;;10.80;3.10;;;23.20;88.00;;;;;;5055518;28;20049;-77
2022/05/16 09:00:41;;;;;;;7.32;3.13;;;23.20;88.60;;;;;;5055458;28;20075;-78
2022/05/16 09:03:13;;;;;;;8.45;3.15;;;23.20;88.80;;;;;;5055393;28;20468;-78
2022/05/16 09:05:47;;;;;;;9.25;3.30;;;23.20;87.80;;;;;;5055545;28;20446;-80
2022/05/16 09:08:23;;;;;;;5.97;3.00;;;23.20;88.00;;;;;;5055124;28;20036;-79
2022/05/16 09:11:05;;;;;;;9.13;2.83;;;23.30;88.70;;;;;;5054696;28;20045;-78
2022/05/16 09:13:50;;;;;;;9.32;2.72;;;23.50;87.70;;;;;;5054684;28;20124;-77
2022/05/16 09:16:42;;;;;;;15.05;3.97;;;23.90;88.40;;;;;;5054653;28;20114;-78
2022/05/16 09:19:18;;;;;;;6.55;2.97;;;24.20;88.10;;;;;;5053565;28;20129;-79
2022/05/16 09:21:51;;;;;;;8.20;3.00;;;24.20;84.80;;;;;;5052695;28;20044;-78
2022/05/16 09:24:43;;;;;;;7.57;2.97;;;24.20;82.20;;;;;;5034753;28;20455;-78
2022/05/16 09:28:34;;;;;;;6.57;3.42;;;24.10;83.40;;;;;;5052290;28;20049;-79
2022/05/16 09:30:07;;;;;;;10.02;3.10;;;24.00;84.30;;;;;;5051386;28;20045;-79
2022/05/16 09:32:38;;;;;;;8.63;3.60;;;24.00;83.20;;;;;;5034967;28;20468;-78
2022/05/16 09:35:12;;;;;;;10.20;3.72;;;24.00;82.80;;;;;;5034848;28;20469;-78
2022/05/16 09:37:38;;;;;;;8.75;3.95;;;23.90;82.30;;;;;;5052596;28;20080;-78
2022/05/16 09:40:05;;;;;;;8.10;3.50;;;23.80;82.30;;;;;;5052288;28;20386;-79
2022/05/16 09:42:35;;;;;;;9.45;3.80;;;23.70;83.20;;;;;;5052062;28;20107;-77
2022/05/16 09:45:17;;;;;;;10.00;3.65;;;23.70;83.50;;;;;;5034884;28;20045;-78
2022/05/16 09:47:43;;;;;;;6.70;3.15;;;23.60;83.70;;;;;;5051030;28;20049;-78
2022/05/16 09:50:24;;;;;;;9.13;4.32;;;23.60;83.70;;;;;;5052222;28;20040;-79
2022/05/16 09:53:07;;;;;;;8.75;3.33;;;23.60;84.30;;;;;;5034846;28;20362;-77
2022/05/16 09:56:00;;;;;;;10.63;3.70;;;23.50;83.80;;;;;;5062597;28;20206;-77
2022/05/16 09:58:33;;;;;;;7.15;3.15;;;23.40;84.40;;;;;;5072143;28;20215;-79
2022/05/16 10:01:01;;;;;;;12.48;3.65;;;23.40;85.10;;;;;;5072223;28;20048;-77
2022/05/16 10:03:31;;;;;;;11.52;3.83;;;23.40;85.10;;;;;;5072108;28;20052;-77
2022/05/16 10:06:09;;;;;;;7.93;3.17;;;23.30;85.00;;;;;;5054626;28;20119;-77
2022/05/16 10:08:38;;;;;;;10.13;3.53;;;23.20;85.90;;;;;;5073194;28;20163;-79
2022/05/16 10:11:26;;;;;;;6.57;3.13;;;23.20;85.80;;;;;;5058689;28;20505;-78
2022/05/16 10:13:53;;;;;;;9.10;3.40;;;23.20;85.90;;;;;;5076092;28;20245;-77
2022/05/16 10:16:20;;;;;;;11.27;4.05;;;23.10;86.30;;;;;;5076142;28;20493;-77
2022/05/16 10:18:53;;;;;;;13.50;4.50;;;23.10;87.20;;;;;;5076053;28;20071;-78
2022/05/16 10:22:08;;;;;;;10.90;4.20;;;23.00;89.10;;;;;;5058448;28;20044;-78
2022/05/16 10:24:41;;;;;;;8.65;3.42;;;22.90;89.00;;;;;;5038116;28;20074;-78
2022/05/16 10:27:11;;;;;;;8.75;3.33;;;22.80;90.10;;;;;;5056061;28;20088;-77
2022/05/16 10:29:40;;;;;;;12.52;4.20;;;22.70;89.40;;;;;;5055778;28;20052;-77
2022/05/16 10:35:08;;;;;;;12.43;4.30;;;22.70;89.80;;;;;;5056997;28;20132;-77
2022/05/16 10:37:38;;;;;;;10.63;4.15;;;22.70;90.70;;;;;;5075237;28;20369;-78
2022/05/16 10:40:28;;;;;;;10.85;4.20;;;22.70;90.70;;;;;;5058169;28;20044;-77
2022/05/16 10:43:02;;;;;;;12.68;5.43;;;22.70;90.90;;;;;;5057992;28;20079;-77
2022/05/16 10:45:31;;;;;;;8.68;4.13;;;22.90;91.20;;;;;;5074804;28;20505;-77
2022/05/16 10:48:08;;;;;;;7.60;4.28;;;23.00;91.50;;;;;;5058002;28;20425;-77
2022/05/16 10:51:24;;;;;;;9.88;4.53;;;23.00;91.80;;;;;;5075025;28;20456;-77
2022/05/16 10:53:50;;;;;;;17.33;4.57;;;23.20;92.00;;;;;;4997208;28;20148;-78
2022/05/16 10:56:31;;;;;;;9.65;4.45;;;23.40;92.30;;;;;;5036616;28;20128;-77
2022/05/16 10:59:19;;;;;;;8.52;3.42;;;23.40;91.80;;;;;;5035268;28;20050;-78
2022/05/16 11:02:23;;;;;;;9.15;4.35;;;23.50;91.60;;;;;;5035315;28;20082;-77
2022/05/16 11:05:04;;;;;;;9.50;4.45;;;23.50;90.90;;;;;;4987232;28;20085;-76
2022/05/16 11:08:05;;;;;;;7.45;4.13;;;23.50;91.40;;;;;;5017701;28;20056;-77
2022/05/16 11:11:05;;;;;;;9.07;4.18;;;23.50;91.40;;;;;;5012369;28;20042;-79
2022/05/16 11:13:50;;;;;;;6.82;3.60;;;23.40;91.80;;;;;;4987485;28;20053;-79
2022/05/16 11:16:28;;;;;;;9.57;4.55;;;23.50;91.20;;;;;;5034966;28;20049;-77
2022/05/16 11:19:05;;;;;;;11.57;4.93;;;23.50;91.50;;;;;;5017588;28;20045;-76
2022/05/16 11:21:55;;;;;;;7.75;4.30;;;23.50;92.00;;;;;;5033980;28;20172;-77
2022/05/16 11:24:30;;;;;;;10.88;4.70;;;23.60;93.10;;;;;;5016866;28;20053;-78
2022/05/16 11:27:30;;;;;;;9.52;5.40;;;23.70;91.60;;;;;;5017595;28;20504;-78
2022/05/16 11:30:08;;;;;;;7.10;4.80;;;23.60;91.40;;;;;;5017344;28;20443;-77
2022/05/16 11:32:58;;;;;;;8.00;4.50;;;23.50;91.10;;;;;;5034657;28;20084;-78
2022/05/16 11:35:31;;;;;;;7.93;4.78;;;23.40;91.60;;;;;;5010991;28;20057;-77
2022/05/16 11:38:25;;;;;;;8.35;4.75;;;23.30;92.20;;;;;;5034813;28;20045;-77
2022/05/16 11:41:11;;;;;;;10.13;4.90;;;23.30;92.90;;;;;;5017176;28;20049;-77
2022/05/16 11:43:44;;;;;;;9.07;4.68;;;23.40;92.80;;;;;;5034002;28;20049;-77
2022/05/16 11:46:43;;;;;;;10.70;5.18;;;23.40;93.00;;;;;;5036525;28;20460;-78
2022/05/16 11:49:33;;;;;;;8.88;5.45;;;23.50;92.70;;;;;;5017238;28;20486;-77
2022/05/16 11:52:02;;;;;;;7.72;4.38;;;23.60;93.10;;;;;;5034214;28;20056;-80
2022/05/16 11:54:36;;;;;;;9.15;5.15;;;23.70;93.20;;;;;;5036539;28;20037;-78
2022/05/16 12:00:31;;;;;;;8.55;4.75;;;24.00;93.00;;;;;;5036381;28;20056;-77
2022/05/16 12:03:16;;;;;;;8.88;5.13;;;24.10;93.30;;;;;;5053547;28;20147;-77
2022/05/16 12:05:48;;;;;;;9.55;4.65;;;24.20;93.70;;;;;;5036582;28;20084;-78
2022/05/16 12:08:31;;;;;;;8.57;4.43;;;24.20;94.40;;;;;;5049387;28;20098;-76
2022/05/16 12:11:11;;;;;;;9.15;4.90;;;24.30;94.60;;;;;;5053767;28;20049;-76
2022/05/16 12:13:59;;;;;;;9.95;5.85;;;24.30;94.10;;;;;;5053604;28;20045;-76
2022/05/16 12:16:32;;;;;;;11.07;5.57;;;24.30;93.80;;;;;;5053449;28;20083;-76
2022/05/16 12:19:37;;;;;;;8.70;5.25;;;24.40;94.70;;;;;;5053822;28;20079;-77
2022/05/16 12:22:43;;;;;;;13.07;5.82;;;24.40;95.10;;;;;;4953367;28;20039;-77
2022/05/16 12:25:32;;;;;;;13.40;5.53;;;24.50;94.20;;;;;;4972523;28;20086;-79
2022/05/16 12:28:13;;;;;;;11.43;6.65;;;24.50;93.90;;;;;;5063378;28;20056;-76
2022/05/16 12:30:39;;;;;;;10.93;5.68;;;24.50;93.70;;;;;;5073033;28;20080;-76
2022/05/16 12:33:26;;;;;;;11.00;5.80;;;24.40;94.10;;;;;;5055594;28;20115;-76
2022/05/16 12:35:53;;;;;;;9.82;5.95;;;24.40;93.90;;;;;;5073436;28;20067;-76
2022/05/16 12:38:21;;;;;;;10.15;6.55;;;24.40;93.60;;;;;;5055528;28;20422;-78
2022/05/16 12:41:44;;;;;;;11.90;7.60;;;24.40;93.30;;;;;;5072203;28;20032;-78
2022/05/16 12:44:42;;;;;;;12.98;8.07;;;24.30;94.50;;;;;;5053050;28;20454;-77
2022/05/16 12:47:08;;;;;;;13.75;9.77;;;24.30;94.00;;;;;;5055364;28;20539;-77
2022/05/16 12:49:53;;;;;;;12.75;9.27;;;24.30;93.20;;;;;;5055628;28;20044;-76
2022/05/16 12:52:53;;;;;;;14.93;9.30;;;24.20;92.80;;;;;;5055402;28;20053;-78
2022/05/16 12:55:28;;;;;;;14.65;10.13;;;24.20;93.30;;;;;;5072614;28;20064;-78
2022/05/16 12:58:20;;;;;;;15.77;10.98;;;24.30;93.10;;;;;;5055265;28;20048;-78
2022/05/16 13:00:52;;;;;;;14.77;10.05;;;24.40;94.00;;;;;;5072089;28;20449;-77
2022/05/16 13:03:38;;;;;;;13.20;11.20;;;24.60;94.20;;;;;;5072839;28;20078;-77
2022/05/16 13:06:32;;;;;;;17.88;10.80;;;24.70;93.90;;;;;;5072560;28;20063;-79
2022/05/16 13:09:16;;;;;;;16.00;12.10;;;24.80;93.60;;;;;;5058309;28;20465;-78
2022/05/16 13:11:48;;;;;;;13.98;11.15;;;24.80;92.80;;;;;;5072467;28;20052;-77
2022/05/16 13:14:34;;;;;;;16.00;10.75;;;24.80;92.70;;;;;;5072589;28;20055;-77
2022/05/16 13:17:07;;;;;;;15.00;11.02;;;24.70;93.50;;;;;;5072555;28;20373;-77
2022/05/16 13:19:36;;;;;;;12.75;9.90;;;24.70;93.30;;;;;;5072682;28;20083;-76
2022/05/16 13:22:12;;;;;;;13.43;8.98;;;24.60;93.10;;;;;;5055119;28;20052;-78
2022/05/16 13:24:38;;;;;;;13.70;8.77;;;24.50;92.70;;;;;;5072439;28;20044;-76
2022/05/16 13:29:53;;;;;;;12.38;9.70;;;24.20;92.90;;;;;;5072433;28;20145;-76
2022/05/16 13:32:27;;;;;;;12.80;9.05;;;24.20;93.30;;;;;;5072379;28;20040;-77
2022/05/16 13:34:56;;;;;;;15.02;10.35;;;24.20;93.80;;;;;;5054635;28;20477;-77
2022/05/16 13:37:26;;;;;;;13.93;8.93;;;24.20;93.70;;;;;;5072264;28;20045;-78